createdAt,value
2022-09-24T00:01:40.088Z,3.83
2022-09-24T00:04:12.676Z,4.57
2022-09-24T00:06:45.609Z,3.28
2022-09-24T00:09:19.504Z,3.42
2022-09-24T00:11:47.147Z,3.33
2022-09-24T00:14:14.609Z,3.03
2022-09-24T00:16:43.920Z,5.05
2022-09-24T00:19:14.100Z,3.38
2022-09-24T00:21:42.496Z,2.97
2022-09-24T00:24:33.100Z,6.93
2022-09-24T00:27:27.346Z,6.20
2022-09-24T00:29:54.657Z,4.47
2022-09-24T00:32:23.851Z,3.53
2022-09-24T00:34:53.231Z,2.03
2022-09-24T00:37:23.145Z,4.22
2022-09-24T00:39:50.426Z,4.15
2022-09-24T00:42:22.897Z,5.72
2022-09-24T00:44:54.602Z,4.03
2022-09-24T00:47:39.605Z,2.65
2022-09-24T00:50:45.899Z,4.20
2022-09-24T00:53:19.677Z,4.03
2022-09-24T00:55:51.603Z,2.83
2022-09-24T00:58:19.121Z,5.03
2022-09-24T01:00:47.335Z,3.97
2022-09-24T01:03:22.657Z,3.58
2022-09-24T01:05:50.598Z,3.55
2022-09-24T01:08:19.343Z,4.00
2022-09-24T01:11:23.306Z,3.50
2022-09-24T01:14:10.683Z,3.78
2022-09-24T01:17:27.015Z,3.58
2022-09-24T01:20:31.242Z,3.85
2022-09-24T01:23:48.564Z,2.97
2022-09-24T01:27:06.576Z,2.20
2022-09-24T01:29:57.785Z,3.33
2022-09-24T01:32:37.240Z,4.72
2022-09-24T01:35:22.983Z,2.38
2022-09-24T01:37:58.604Z,3.97
2022-09-24T01:40:28.389Z,4.00
2022-09-24T01:42:58.885Z,2.20
2022-09-24T01:45:31.558Z,4.78
2022-09-24T01:48:02.026Z,4.13
2022-09-24T01:50:33.570Z,2.83
2022-09-24T01:53:21.237Z,4.03
2022-09-24T01:55:55.041Z,4.35
2022-09-24T01:58:33.603Z,2.45
2022-09-24T02:01:09.323Z,2.35
2022-09-24T02:03:43.254Z,4.15
2022-09-24T02:06:37.902Z,2.58
2022-09-24T02:09:38.359Z,3.00
2022-09-24T02:12:46.254Z,2.60
2022-09-24T02:15:31.428Z,3.53
2022-09-24T02:18:07.781Z,2.70
2022-09-24T02:20:37.023Z,4.00
2022-09-24T02:23:06.345Z,2.42
2022-09-24T02:25:42.216Z,3.63
2022-09-24T02:28:09.777Z,2.67
2022-09-24T02:30:41.909Z,2.50
2022-09-24T02:35:58.360Z,2.67
2022-09-24T02:38:25.760Z,2.70
2022-09-24T02:43:44.864Z,4.03
2022-09-24T02:46:12.498Z,3.38
2022-09-24T02:48:39.808Z,3.17
2022-09-24T02:51:07.248Z,4.32
2022-09-24T02:53:35.243Z,3.22
2022-09-24T02:56:03.564Z,3.67
2022-09-24T02:58:31.481Z,3.50
2022-09-24T03:00:58.889Z,3.25
2022-09-24T03:03:26.739Z,3.47
2022-09-24T03:05:55.079Z,5.30
2022-09-24T03:08:24.239Z,4.57
2022-09-24T03:10:52.012Z,3.97
2022-09-24T03:13:19.434Z,3.78
2022-09-24T03:15:46.806Z,3.15
2022-09-24T03:18:14.885Z,4.75
2022-09-24T03:20:42.594Z,4.45
2022-09-24T03:23:09.938Z,4.05
2022-09-24T03:25:37.309Z,3.92
2022-09-24T03:28:04.619Z,3.15
2022-09-24T03:30:50.457Z,5.47
2022-09-24T03:33:17.773Z,2.22
2022-09-24T03:35:45.125Z,4.38
2022-09-24T03:38:14.658Z,4.43
2022-09-24T03:40:42.054Z,3.78
2022-09-24T03:43:09.414Z,4.32
2022-09-24T03:45:37.923Z,4.35
2022-09-24T03:48:06.590Z,3.03
2022-09-24T03:50:37.286Z,4.47
2022-09-24T03:53:05.090Z,2.53
2022-09-24T03:55:32.425Z,2.40
2022-09-24T03:58:00.026Z,2.53
2022-09-24T04:00:27.542Z,3.30
2022-09-24T04:02:54.902Z,2.95
2022-09-24T04:05:22.504Z,3.50
2022-09-24T04:07:49.854Z,3.75
2022-09-24T04:10:17.322Z,2.42
2022-09-24T04:12:46.141Z,3.20
2022-09-24T04:15:15.375Z,2.78
2022-09-24T04:17:50.595Z,2.47
2022-09-24T04:20:22.955Z,3.90
2022-09-24T04:22:51.022Z,4.03
2022-09-24T04:25:18.813Z,2.47
2022-09-24T04:27:46.144Z,3.10
2022-09-24T04:30:14.584Z,2.55
2022-09-24T04:32:42.176Z,3.38
2022-09-24T04:35:10.656Z,3.03
2022-09-24T04:37:38.235Z,2.63
2022-09-24T04:40:07.263Z,2.95
2022-09-24T04:42:34.603Z,2.25
2022-09-24T04:45:02.454Z,3.88
2022-09-24T04:47:29.804Z,3.83
2022-09-24T04:49:57.167Z,2.60
2022-09-24T04:52:29.748Z,3.63
2022-09-24T04:54:58.108Z,3.15
2022-09-24T04:57:29.584Z,2.90
2022-09-24T04:59:56.914Z,3.03
2022-09-24T05:02:24.915Z,2.22
2022-09-24T05:04:52.314Z,3.45
2022-09-24T05:07:22.529Z,2.17
2022-09-24T05:09:49.896Z,3.28
2022-09-24T05:12:18.235Z,2.75
2022-09-24T05:14:45.607Z,5.10
2022-09-24T05:17:13.064Z,4.10
2022-09-24T05:19:40.396Z,5.15
2022-09-24T05:22:07.810Z,10.25
2022-09-24T05:24:35.172Z,4.40
2022-09-24T05:27:11.709Z,3.38
2022-09-24T05:29:46.131Z,3.13
2022-09-24T05:32:15.737Z,6.57
2022-09-24T05:34:44.450Z,5.63
2022-09-24T05:37:12.905Z,5.82
2022-09-24T05:39:40.477Z,4.40
2022-09-24T05:42:15.730Z,3.03
2022-09-24T05:44:45.666Z,4.47
2022-09-24T05:47:18.097Z,5.97
2022-09-24T05:49:45.451Z,4.43
2022-09-24T05:52:13.336Z,5.10
2022-09-24T05:54:40.734Z,3.08
2022-09-24T05:57:08.052Z,3.60
2022-09-24T05:59:35.394Z,3.55
2022-09-24T06:02:02.797Z,3.22
2022-09-24T06:04:31.105Z,5.03
2022-09-24T06:06:58.486Z,4.80
2022-09-24T06:09:25.796Z,3.75
2022-09-24T06:11:54.766Z,3.28
2022-09-24T06:14:22.093Z,3.08
2022-09-24T06:16:49.381Z,3.03
2022-09-24T06:19:16.736Z,2.97
2022-09-24T06:21:44.026Z,3.95
2022-09-24T06:24:11.686Z,3.55
2022-09-24T06:26:38.966Z,2.58
2022-09-24T06:29:07.114Z,3.45
2022-09-24T06:31:34.860Z,4.35
2022-09-24T06:34:02.887Z,3.78
2022-09-24T06:36:30.212Z,9.40
2022-09-24T06:38:59.136Z,12.27
2022-09-24T06:41:26.529Z,10.05
2022-09-24T06:43:55.063Z,7.80
2022-09-24T06:46:25.949Z,8.75
2022-09-24T06:48:56.556Z,9.48
2022-09-24T06:51:24.079Z,6.47
2022-09-24T06:53:52.654Z,3.63
2022-09-24T06:56:20.132Z,3.95
2022-09-24T06:58:47.511Z,2.95
2022-09-24T07:01:17.978Z,3.70
2022-09-24T07:03:45.358Z,3.00
2022-09-24T07:06:12.650Z,8.50
2022-09-24T07:08:40.087Z,3.38
2022-09-24T07:11:08.376Z,3.50
2022-09-24T07:13:35.753Z,3.80
2022-09-24T07:16:03.165Z,4.22
2022-09-24T07:18:31.007Z,3.22
2022-09-24T07:20:58.309Z,2.97
2022-09-24T07:23:26.287Z,3.53
2022-09-24T07:25:57.324Z,3.20
2022-09-24T07:28:25.146Z,2.45
2022-09-24T07:30:59.811Z,3.35
2022-09-24T07:33:27.620Z,2.40
2022-09-24T07:35:54.942Z,2.53
2022-09-24T07:38:22.505Z,2.80
2022-09-24T07:40:49.955Z,3.10
2022-09-24T07:43:17.396Z,2.45
2022-09-24T07:45:45.274Z,3.65
2022-09-24T07:48:13.018Z,3.30
2022-09-24T07:50:41.551Z,2.03
2022-09-24T07:53:12.228Z,3.60
2022-09-24T07:55:40.933Z,2.40
2022-09-24T07:58:13.618Z,2.15
2022-09-24T08:00:41.337Z,2.05
2022-09-24T08:03:08.813Z,2.55
2022-09-24T08:05:36.245Z,4.00
2022-09-24T08:08:03.594Z,3.25
2022-09-24T08:10:30.932Z,3.38
2022-09-24T08:13:02.358Z,3.13
2022-09-24T08:15:30.167Z,2.28
2022-09-24T08:18:04.673Z,2.42
2022-09-24T08:20:32.860Z,1.50
2022-09-24T08:23:04.547Z,2.60
2022-09-24T08:25:32.235Z,2.67
2022-09-24T08:28:07.549Z,1.58
2022-09-24T08:30:35.611Z,2.75
2022-09-24T08:33:04.945Z,4.85
2022-09-24T08:35:33.779Z,1.77
2022-09-24T08:38:01.898Z,5.20
2022-09-24T08:40:36.210Z,2.55
2022-09-24T08:43:26.234Z,1.58
2022-09-24T08:46:16.373Z,2.28
2022-09-24T08:48:51.530Z,3.65
2022-09-24T08:51:22.063Z,3.10
2022-09-24T08:53:58.961Z,1.65
2022-09-24T08:56:29.939Z,2.15
2022-09-24T08:59:05.184Z,1.90
2022-09-24T09:01:51.084Z,2.10
2022-09-24T09:04:58.278Z,1.30
2022-09-24T09:07:31.232Z,1.92
2022-09-24T09:10:11.129Z,1.60
2022-09-24T09:12:48.039Z,1.33
2022-09-24T09:15:29.589Z,2.35
2022-09-24T09:18:04.294Z,2.13
2022-09-24T09:20:38.734Z,2.17
2022-09-24T09:23:36.836Z,2.15
2022-09-24T09:26:06.888Z,2.95
2022-09-24T09:28:34.312Z,1.20
2022-09-24T09:31:56.287Z,1.73
2022-09-24T09:35:11.286Z,0.98
2022-09-24T09:37:55.291Z,2.00
2022-09-24T09:40:31.567Z,1.52
2022-09-24T09:43:05.117Z,2.35
2022-09-24T09:45:42.063Z,1.73
2022-09-24T09:48:14.191Z,1.70
2022-09-24T09:51:13.745Z,2.72
2022-09-24T09:53:41.120Z,1.63
2022-09-24T09:56:08.590Z,2.67
2022-09-24T09:58:40.763Z,2.22
2022-09-24T10:01:17.259Z,2.92
2022-09-24T10:03:54.048Z,4.60
2022-09-24T10:06:33.159Z,1.85
2022-09-24T10:09:20.148Z,2.55
2022-09-24T10:11:48.390Z,2.25
2022-09-24T10:14:19.025Z,1.80
2022-09-24T10:16:55.295Z,2.05
2022-09-24T10:19:28.759Z,0.90
2022-09-24T10:21:58.466Z,1.00
2022-09-24T10:24:27.907Z,2.08
2022-09-24T10:26:55.443Z,1.33
2022-09-24T10:29:44.875Z,1.63
2022-09-24T10:32:24.032Z,1.75
2022-09-24T10:35:20.120Z,1.60
2022-09-24T10:37:55.502Z,2.03
2022-09-24T10:40:30.906Z,1.10
2022-09-24T10:43:03.268Z,1.65
2022-09-24T10:46:21.745Z,3.33
2022-09-24T10:49:27.559Z,2.67
2022-09-24T10:52:48.067Z,2.22
2022-09-24T10:55:57.220Z,1.85
2022-09-24T10:58:46.555Z,2.22
2022-09-24T11:01:35.686Z,1.08
2022-09-24T11:04:42.430Z,1.83
2022-09-24T11:07:18.361Z,1.02
2022-09-24T11:10:35.998Z,1.58
2022-09-24T11:13:23.382Z,6.50
2022-09-24T11:16:30.784Z,1.92
2022-09-24T11:19:44.167Z,1.95
2022-09-24T11:22:25.823Z,1.90
2022-09-24T11:28:56.141Z,2.25
2022-09-24T11:31:38.786Z,26.17
2022-09-24T11:34:17.338Z,1.48
2022-09-24T11:37:16.156Z,1.50
2022-09-24T11:52:44.727Z,2.03
2022-09-24T11:55:34.833Z,1.65
2022-09-24T11:58:24.140Z,1.45
2022-09-24T12:01:10.546Z,2.38
2022-09-24T12:03:49.341Z,1.45
2022-09-24T12:06:24.372Z,1.20
2022-09-24T12:09:01.635Z,1.45
2022-09-24T12:12:09.712Z,1.55
2022-09-24T12:15:01.872Z,2.83
2022-09-24T12:20:30.541Z,1.95
2022-09-24T12:23:04.927Z,1.35
2022-09-24T12:25:42.831Z,1.35
2022-09-24T12:28:14.709Z,4.88
2022-09-24T12:33:48.917Z,1.65
2022-09-24T12:36:57.060Z,1.70
2022-09-24T12:39:32.970Z,1.73
2022-09-24T12:42:05.759Z,1.05
2022-09-24T12:44:46.844Z,0.93
2022-09-24T12:47:23.328Z,0.73
2022-09-24T12:50:06.050Z,1.08
2022-09-24T12:52:43.354Z,8.35
2022-09-24T12:55:31.677Z,2.38
2022-09-24T12:58:05.853Z,1.67
2022-09-24T13:00:42.029Z,1.92
2022-09-24T13:03:47.443Z,0.95
2022-09-24T13:06:33.064Z,1.20
2022-09-24T13:09:01.001Z,1.20
2022-09-24T13:11:31.977Z,1.27
2022-09-24T13:14:22.144Z,1.07
2022-09-24T13:16:53.331Z,1.35
2022-09-24T13:19:55.918Z,1.42
2022-09-24T13:22:32.684Z,0.70
2022-09-24T13:25:27.299Z,1.38
2022-09-24T13:28:20.032Z,1.10
2022-09-24T13:30:54.124Z,0.65
2022-09-24T13:33:33.669Z,0.50
2022-09-24T13:36:16.423Z,1.02
2022-09-24T13:39:00.963Z,1.33
2022-09-24T13:41:46.971Z,0.90
2022-09-24T13:44:33.437Z,1.08
2022-09-24T13:47:11.169Z,1.13
2022-09-24T13:49:45.218Z,0.60
2022-09-24T13:52:25.748Z,0.82
2022-09-24T13:54:56.867Z,0.77
2022-09-24T13:57:26.696Z,1.20
2022-09-24T14:00:27.826Z,0.57
2022-09-24T14:03:20.736Z,1.33
2022-09-24T14:05:50.453Z,0.73
2022-09-24T14:08:21.360Z,1.75
2022-09-24T14:10:49.136Z,1.00
2022-09-24T14:13:22.632Z,1.85
2022-09-24T14:16:20.521Z,1.05
2022-09-24T14:18:49.322Z,2.17
2022-09-24T14:21:24.295Z,0.55
2022-09-24T14:24:06.049Z,0.35
2022-09-24T14:26:51.479Z,1.02
2022-09-24T14:29:27.999Z,0.60
2022-09-24T14:32:02.005Z,3.78
2022-09-24T14:34:44.319Z,1.30
2022-09-24T14:37:23.973Z,0.85
2022-09-24T14:39:57.578Z,0.52
2022-09-24T14:42:38.462Z,0.75
2022-09-24T14:45:08.509Z,0.73
2022-09-24T14:47:37.223Z,0.70
2022-09-24T14:50:24.732Z,0.60
2022-09-24T14:53:00.809Z,0.85
2022-09-24T14:55:39.859Z,1.13
2022-09-24T14:58:27.019Z,1.65
2022-09-24T15:00:58.173Z,1.08
2022-09-24T15:03:37.853Z,0.65
2022-09-24T15:06:13.514Z,1.40
2022-09-24T15:08:42.378Z,1.23
2022-09-24T15:11:20.685Z,0.75
2022-09-24T15:13:58.529Z,1.05
2022-09-24T15:16:46.851Z,0.63
2022-09-24T15:19:20.149Z,1.92
2022-09-24T15:21:49.234Z,0.98
2022-09-24T15:24:17.603Z,0.70
2022-09-24T15:26:48.518Z,1.45
2022-09-24T15:29:20.908Z,1.25
2022-09-24T15:31:48.302Z,1.33
2022-09-24T15:34:19.776Z,1.73
2022-09-24T15:39:21.684Z,1.15
2022-09-24T15:41:49.035Z,0.98
2022-09-24T15:44:22.956Z,2.50
2022-09-24T15:46:51.642Z,2.15
2022-09-24T15:49:23.046Z,1.15
2022-09-24T15:51:53.926Z,1.33
2022-09-24T15:54:22.252Z,0.95
2022-09-24T15:56:52.654Z,1.42
2022-09-24T15:59:22.070Z,2.45
2022-09-24T16:01:52.359Z,2.38
2022-09-24T16:04:19.846Z,4.03
2022-09-24T16:06:47.267Z,1.10
2022-09-24T16:09:14.601Z,1.17
2022-09-24T16:11:42.220Z,0.95
2022-09-24T16:14:10.417Z,0.93
2022-09-24T16:16:41.120Z,1.83
2022-09-24T16:19:09.495Z,1.17
2022-09-24T16:21:37.275Z,6.72
2022-09-24T16:24:05.028Z,1.67
2022-09-24T16:26:32.515Z,1.00
2022-09-24T16:29:02.529Z,1.45
2022-09-24T16:31:30.114Z,2.15
2022-09-24T16:33:57.663Z,1.00
2022-09-24T16:36:25.078Z,0.63
2022-09-24T16:38:52.419Z,1.85
2022-09-24T16:41:19.700Z,2.30
2022-09-24T16:43:47.127Z,1.48
2022-09-24T16:46:20.143Z,2.03
2022-09-24T16:48:51.568Z,1.45
2022-09-24T16:51:19.648Z,1.80
2022-09-24T16:53:48.962Z,1.75
2022-09-24T16:56:17.587Z,4.65
2022-09-24T16:58:46.433Z,1.98
2022-09-24T17:01:18.737Z,1.67
2022-09-24T17:03:51.650Z,4.70
2022-09-24T17:06:24.471Z,2.40
2022-09-24T17:09:10.754Z,1.80
2022-09-24T17:11:40.220Z,5.18
2022-09-24T17:14:10.504Z,2.53
2022-09-24T17:16:38.700Z,2.58
2022-09-24T17:19:07.977Z,2.17
2022-09-24T17:21:37.172Z,3.78
2022-09-24T17:24:05.156Z,3.05
2022-09-24T17:26:32.626Z,3.42
2022-09-24T17:28:59.993Z,3.70
2022-09-24T17:31:27.576Z,3.00
2022-09-24T17:33:56.270Z,3.28
2022-09-24T17:36:24.910Z,3.80
2022-09-24T17:38:52.374Z,3.10
2022-09-24T17:41:20.628Z,4.18
2022-09-24T17:43:48.216Z,6.22
2022-09-24T17:46:20.873Z,3.53
2022-09-24T17:48:53.289Z,5.00
2022-09-24T17:51:32.667Z,3.92
2022-09-24T17:54:02.095Z,3.78
2022-09-24T17:56:34.622Z,4.30
2022-09-24T17:59:02.049Z,3.85
2022-09-24T18:01:37.015Z,4.38
2022-09-24T18:04:15.465Z,5.10
2022-09-24T18:06:45.066Z,5.28
2022-09-24T18:09:14.291Z,4.50
2022-09-24T18:11:51.635Z,5.38
2022-09-24T18:14:21.923Z,4.78
2022-09-24T18:16:50.209Z,4.82
2022-09-24T18:19:18.135Z,4.28
2022-09-24T18:21:46.574Z,5.13
2022-09-24T18:24:17.509Z,4.30
2022-09-24T18:26:47.405Z,4.65
2022-09-24T18:29:17.706Z,5.32
2022-09-24T18:31:45.489Z,4.90
2022-09-24T18:34:15.395Z,6.15
2022-09-24T18:36:44.086Z,8.05
2022-09-24T18:39:14.755Z,6.03
2022-09-24T18:41:44.471Z,8.25
2022-09-24T18:44:12.030Z,9.07
2022-09-24T18:46:39.614Z,10.13
2022-09-24T18:49:07.014Z,6.63
2022-09-24T18:51:36.418Z,9.38
2022-09-24T18:54:07.441Z,7.32
2022-09-24T18:56:37.566Z,8.82
2022-09-24T18:59:09.761Z,7.53
2022-09-24T19:01:39.069Z,7.38
2022-09-24T19:04:10.739Z,8.52
2022-09-24T19:06:43.230Z,8.77
2022-09-24T19:09:13.390Z,8.68
2022-09-24T19:11:41.907Z,13.35
2022-09-24T19:14:11.455Z,11.18
2022-09-24T19:16:39.890Z,8.45
2022-09-24T19:19:11.243Z,9.10
2022-09-24T19:21:38.972Z,6.93
2022-09-24T19:24:08.320Z,8.38
2022-09-24T19:26:36.728Z,10.07
2022-09-24T19:29:05.216Z,9.18
2022-09-24T19:31:38.626Z,10.55
2022-09-24T19:34:08.456Z,8.20
2022-09-24T19:36:44.889Z,10.35
2022-09-24T19:39:15.058Z,9.57
2022-09-24T19:41:43.027Z,10.27
2022-09-24T19:44:11.420Z,10.00
2022-09-24T19:46:39.961Z,8.30
2022-09-24T19:49:07.583Z,9.05
2022-09-24T19:51:36.238Z,9.10
2022-09-24T19:54:09.005Z,8.02
2022-09-24T19:56:38.206Z,8.15
2022-09-24T19:59:06.060Z,9.02
2022-09-24T20:01:34.110Z,8.88
2022-09-24T20:04:04.559Z,8.70
2022-09-24T20:06:34.143Z,10.50
2022-09-24T20:09:01.947Z,9.80
2022-09-24T20:11:32.446Z,9.65
2022-09-24T20:14:01.328Z,10.07
2022-09-24T20:16:33.073Z,9.18
2022-09-24T20:19:02.203Z,8.13
2022-09-24T20:21:34.609Z,7.30
2022-09-24T20:24:07.034Z,11.45
2022-09-24T20:26:53.435Z,10.70
2022-09-24T20:29:21.941Z,8.15
2022-09-24T20:31:52.748Z,9.60
2022-09-24T20:34:25.118Z,8.20
2022-09-24T20:36:52.572Z,8.93
2022-09-24T20:39:20.742Z,8.23
2022-09-24T20:41:49.587Z,8.57
2022-09-24T20:44:17.869Z,10.52
2022-09-24T20:46:45.295Z,8.38
2022-09-24T20:49:24.514Z,7.32
2022-09-24T20:51:57.062Z,8.82
2022-09-24T20:54:26.894Z,10.02
2022-09-24T20:56:54.675Z,8.60
2022-09-24T20:59:21.990Z,10.00
2022-09-24T21:01:49.617Z,22.17
2022-09-24T21:04:19.965Z,10.80
2022-09-24T21:06:50.607Z,10.88
2022-09-24T21:09:18.255Z,8.88
2022-09-24T21:11:45.646Z,7.97
2022-09-24T21:14:13.198Z,9.70
2022-09-24T21:16:40.635Z,8.68
2022-09-24T21:19:08.153Z,10.90
2022-09-24T21:21:39.145Z,6.68
2022-09-24T21:24:10.190Z,8.63
2022-09-24T21:26:41.588Z,7.45
2022-09-24T21:29:20.817Z,7.50
2022-09-24T21:31:50.869Z,9.27
2022-09-24T21:34:20.802Z,10.73
2022-09-24T21:36:48.595Z,12.93
2022-09-24T21:39:17.605Z,10.68
2022-09-24T21:41:48.260Z,9.70
2022-09-24T21:44:19.244Z,7.72
2022-09-24T21:46:47.717Z,7.88
2022-09-24T21:49:17.173Z,6.70
2022-09-24T21:51:45.741Z,9.98
2022-09-24T21:54:16.271Z,9.85
2022-09-24T21:56:44.256Z,10.75
2022-09-24T21:59:29.972Z,10.45
2022-09-24T22:01:57.431Z,6.93
2022-09-24T22:04:24.939Z,6.82
2022-09-24T22:06:52.618Z,8.43
2022-09-24T22:09:20.456Z,6.80
2022-09-24T22:11:47.811Z,7.82
2022-09-24T22:14:15.185Z,8.70
2022-09-24T22:16:42.615Z,8.85
2022-09-24T22:19:09.995Z,7.30
2022-09-24T22:21:40.647Z,7.07
2022-09-24T22:24:08.252Z,9.32
2022-09-24T22:26:35.706Z,9.45
2022-09-24T22:29:06.399Z,6.75
2022-09-24T22:31:34.193Z,9.48
2022-09-24T22:34:20.204Z,8.15
2022-09-24T22:36:48.087Z,8.30
2022-09-24T22:39:15.634Z,9.95
2022-09-24T22:41:43.448Z,8.50
2022-09-24T22:44:12.103Z,7.60
2022-09-24T22:46:41.426Z,8.70
2022-09-24T22:49:10.994Z,6.40
2022-09-24T22:51:39.490Z,8.30
2022-09-24T22:54:08.596Z,8.23
2022-09-24T22:56:36.680Z,6.03
2022-09-24T22:59:05.225Z,8.52
2022-09-24T23:01:41.096Z,6.32
2022-09-24T23:04:15.309Z,8.35
2022-09-24T23:06:43.769Z,6.82
2022-09-24T23:09:11.464Z,8.05
2022-09-24T23:11:39.371Z,8.98
2022-09-24T23:14:12.065Z,7.50
2022-09-24T23:16:39.947Z,7.13
2022-09-24T23:19:12.298Z,7.40
2022-09-24T23:21:39.697Z,9.13
2022-09-24T23:24:09.468Z,7.22
2022-09-24T23:26:37.262Z,9.35
2022-09-24T23:29:05.138Z,7.38
2022-09-24T23:31:35.447Z,15.77
2022-09-24T23:34:03.969Z,11.82
2022-09-24T23:36:32.503Z,15.60
2022-09-24T23:39:00.943Z,17.42
2022-09-24T23:41:30.002Z,19.25
2022-09-24T23:43:58.372Z,17.23
2022-09-24T23:46:25.780Z,17.45
2022-09-24T23:48:53.241Z,15.40
2022-09-24T23:51:20.627Z,16.25
2022-09-24T23:53:48.013Z,11.60
2022-09-24T23:56:15.380Z,10.25
2022-09-24T23:58:42.890Z,8.27
